< < Back
Terminal Aerodrome Forecast


Current Version              Previous Versions:   1  2  3  4  5  6  7  8  9  

Terminal Aerodrome Forecast

976
FTUS42 KGSP 011725
TAFCLT
TAF
KCLT 011725Z 0118/0218 23006KT P6SM SCT025 SCT080
     FM020000 19005KT P6SM SCT080
     FM021000 33003KT 5SM BR SCT250
     FM021400 05004KT P6SM FEW060 SCT250 PROB30 0216/0218 4SM -TSRA
      BKN060CB=



Latest METAR

026
SAUS70 KWBC 020300 RRC
MTRCLT
METAR KCLT 020252Z 25003KT 10SM FEW110 FEW250 25/21 A3000 RMK AO2 SLP149
T02500206 53010


USA.gov is the U.S. government's official web portal to all federal, state and local government web resources and services.